sensor_id;sensor_type;location;lat;lon;timestamp;P1;durP1;ratioP1;P2;durP2;ratioP2
75628;SDS011;64213;46.452;16.994;2023-09-18T00:00:10;15.30;;;7.20;;
75628;SDS011;64213;46.452;16.994;2023-09-18T00:03:14;16.42;;;7.62;;
75628;SDS011;64213;46.452;16.994;2023-09-18T00:06:17;15.73;;;7.55;;
75628;SDS011;64213;46.452;16.994;2023-09-18T00:09:19;14.97;;;7.50;;
75628;SDS011;64213;46.452;16.994;2023-09-18T00:12:22;14.40;;;7.57;;
75628;SDS011;64213;46.452;16.994;2023-09-18T00:15:24;14.70;;;7.47;;
75628;SDS011;64213;46.452;16.994;2023-09-18T00:18:27;14.98;;;8.00;;
75628;SDS011;64213;46.452;16.994;2023-09-18T00:21:29;14.35;;;7.87;;
75628;SDS011;64213;46.452;16.994;2023-09-18T00:24:32;14.67;;;7.53;;
75628;SDS011;64213;46.452;16.994;2023-09-18T00:27:35;14.57;;;7.85;;
75628;SDS011;64213;46.452;16.994;2023-09-18T00:30:47;15.23;;;8.18;;
75628;SDS011;64213;46.452;16.994;2023-09-18T00:33:51;14.93;;;7.07;;
75628;SDS011;64213;46.452;16.994;2023-09-18T00:36:54;16.37;;;8.18;;
75628;SDS011;64213;46.452;16.994;2023-09-18T00:39:56;17.83;;;8.33;;
75628;SDS011;64213;46.452;16.994;2023-09-18T00:42:59;16.40;;;7.37;;
75628;SDS011;64213;46.452;16.994;2023-09-18T00:46:01;15.02;;;7.50;;
75628;SDS011;64213;46.452;16.994;2023-09-18T00:49:04;15.77;;;7.78;;
75628;SDS011;64213;46.452;16.994;2023-09-18T00:52:07;15.10;;;7.90;;
75628;SDS011;64213;46.452;16.994;2023-09-18T00:55:11;13.80;;;7.20;;
75628;SDS011;64213;46.452;16.994;2023-09-18T00:58:15;16.42;;;7.87;;
75628;SDS011;64213;46.452;16.994;2023-09-18T01:01:18;18.12;;;8.00;;
75628;SDS011;64213;46.452;16.994;2023-09-18T01:04:25;15.63;;;7.28;;
75628;SDS011;64213;46.452;16.994;2023-09-18T01:07:30;16.10;;;7.60;;
75628;SDS011;64213;46.452;16.994;2023-09-18T01:10:34;14.60;;;7.70;;
75628;SDS011;64213;46.452;16.994;2023-09-18T01:13:50;14.60;;;7.43;;
75628;SDS011;64213;46.452;16.994;2023-09-18T01:16:57;14.30;;;7.50;;
75628;SDS011;64213;46.452;16.994;2023-09-18T01:20:00;13.57;;;6.87;;
75628;SDS011;64213;46.452;16.994;2023-09-18T01:23:02;14.10;;;7.07;;
75628;SDS011;64213;46.452;16.994;2023-09-18T01:26:05;14.77;;;7.07;;
75628;SDS011;64213;46.452;16.994;2023-09-18T01:29:08;15.25;;;7.25;;
75628;SDS011;64213;46.452;16.994;2023-09-18T01:32:10;13.73;;;6.97;;
75628;SDS011;64213;46.452;16.994;2023-09-18T01:35:13;14.32;;;7.25;;
75628;SDS011;64213;46.452;16.994;2023-09-18T01:38:17;13.05;;;6.93;;
75628;SDS011;64213;46.452;16.994;2023-09-18T01:41:20;15.07;;;7.13;;
75628;SDS011;64213;46.452;16.994;2023-09-18T01:44:23;13.15;;;6.62;;
75628;SDS011;64213;46.452;16.994;2023-09-18T01:47:26;14.70;;;7.35;;
75628;SDS011;64213;46.452;16.994;2023-09-18T01:50:32;14.98;;;7.05;;
75628;SDS011;64213;46.452;16.994;2023-09-18T01:53:34;14.38;;;7.20;;
75628;SDS011;64213;46.452;16.994;2023-09-18T01:56:37;16.40;;;7.07;;
75628;SDS011;64213;46.452;16.994;2023-09-18T01:59:39;14.48;;;6.72;;
75628;SDS011;64213;46.452;16.994;2023-09-18T02:02:44;15.65;;;7.07;;
75628;SDS011;64213;46.452;16.994;2023-09-18T02:06:03;14.43;;;7.00;;
75628;SDS011;64213;46.452;16.994;2023-09-18T02:09:05;15.82;;;7.35;;
75628;SDS011;64213;46.452;16.994;2023-09-18T02:12:11;15.40;;;7.60;;
75628;SDS011;64213;46.452;16.994;2023-09-18T02:15:18;13.30;;;6.65;;
75628;SDS011;64213;46.452;16.994;2023-09-18T02:18:21;15.50;;;7.10;;
75628;SDS011;64213;46.452;16.994;2023-09-18T02:21:23;13.02;;;6.65;;
75628;SDS011;64213;46.452;16.994;2023-09-18T02:24:26;15.73;;;7.50;;
75628;SDS011;64213;46.452;16.994;2023-09-18T02:27:28;13.23;;;6.50;;
75628;SDS011;64213;46.452;16.994;2023-09-18T02:30:31;12.57;;;6.90;;
75628;SDS011;64213;46.452;16.994;2023-09-18T02:33:33;14.55;;;6.70;;
75628;SDS011;64213;46.452;16.994;2023-09-18T02:36:36;15.23;;;6.85;;
75628;SDS011;64213;46.452;16.994;2023-09-18T02:39:40;13.65;;;7.10;;
75628;SDS011;64213;46.452;16.994;2023-09-18T02:42:43;16.57;;;7.73;;
75628;SDS011;64213;46.452;16.994;2023-09-18T02:45:45;15.52;;;7.30;;
75628;SDS011;64213;46.452;16.994;2023-09-18T02:48:48;14.38;;;7.57;;
75628;SDS011;64213;46.452;16.994;2023-09-18T02:51:50;13.52;;;7.65;;
75628;SDS011;64213;46.452;16.994;2023-09-18T02:54:52;15.77;;;8.35;;
75628;SDS011;64213;46.452;16.994;2023-09-18T02:57:55;16.27;;;8.53;;
75628;SDS011;64213;46.452;16.994;2023-09-18T03:00:57;17.90;;;9.32;;
75628;SDS011;64213;46.452;16.994;2023-09-18T03:04:04;18.90;;;9.30;;
75628;SDS011;64213;46.452;16.994;2023-09-18T03:07:07;18.37;;;9.25;;
75628;SDS011;64213;46.452;16.994;2023-09-18T03:10:10;20.73;;;10.48;;
75628;SDS011;64213;46.452;16.994;2023-09-18T03:13:15;18.00;;;9.77;;
75628;SDS011;64213;46.452;16.994;2023-09-18T03:16:18;18.02;;;9.55;;
75628;SDS011;64213;46.452;16.994;2023-09-18T03:19:20;18.52;;;10.88;;
75628;SDS011;64213;46.452;16.994;2023-09-18T03:22:24;20.85;;;10.38;;
75628;SDS011;64213;46.452;16.994;2023-09-18T03:25:26;20.33;;;11.30;;
75628;SDS011;64213;46.452;16.994;2023-09-18T03:28:29;18.97;;;10.53;;
75628;SDS011;64213;46.452;16.994;2023-09-18T03:31:32;20.27;;;10.63;;
75628;SDS011;64213;46.452;16.994;2023-09-18T03:34:34;20.08;;;11.82;;
75628;SDS011;64213;46.452;16.994;2023-09-18T03:37:36;20.37;;;12.23;;
75628;SDS011;64213;46.452;16.994;2023-09-18T03:40:38;22.35;;;13.18;;
75628;SDS011;64213;46.452;16.994;2023-09-18T03:43:41;21.83;;;13.67;;
75628;SDS011;64213;46.452;16.994;2023-09-18T03:46:43;19.85;;;12.27;;
75628;SDS011;64213;46.452;16.994;2023-09-18T03:49:46;23.10;;;12.82;;
75628;SDS011;64213;46.452;16.994;2023-09-18T03:52:48;21.52;;;12.52;;
75628;SDS011;64213;46.452;16.994;2023-09-18T03:55:51;25.08;;;12.85;;
75628;SDS011;64213;46.452;16.994;2023-09-18T03:58:54;23.50;;;13.73;;
75628;SDS011;64213;46.452;16.994;2023-09-18T04:01:57;26.08;;;14.50;;
75628;SDS011;64213;46.452;16.994;2023-09-18T04:05:00;24.33;;;14.55;;
75628;SDS011;64213;46.452;16.994;2023-09-18T04:08:03;25.02;;;14.43;;
75628;SDS011;64213;46.452;16.994;2023-09-18T04:11:05;25.83;;;15.05;;
75628;SDS011;64213;46.452;16.994;2023-09-18T04:14:11;27.77;;;15.57;;
75628;SDS011;64213;46.452;16.994;2023-09-18T04:17:13;24.73;;;14.23;;
75628;SDS011;64213;46.452;16.994;2023-09-18T04:20:16;26.55;;;15.65;;
75628;SDS011;64213;46.452;16.994;2023-09-18T04:23:26;25.23;;;14.25;;
75628;SDS011;64213;46.452;16.994;2023-09-18T04:26:29;24.42;;;15.27;;
75628;SDS011;64213;46.452;16.994;2023-09-18T04:29:32;23.10;;;11.60;;
75628;SDS011;64213;46.452;16.994;2023-09-18T04:32:38;15.95;;;8.18;;
75628;SDS011;64213;46.452;16.994;2023-09-18T04:35:40;16.08;;;7.75;;
75628;SDS011;64213;46.452;16.994;2023-09-18T04:38:43;15.60;;;6.30;;
75628;SDS011;64213;46.452;16.994;2023-09-18T04:41:46;15.25;;;6.55;;
75628;SDS011;64213;46.452;16.994;2023-09-18T04:44:48;13.97;;;6.70;;
75628;SDS011;64213;46.452;16.994;2023-09-18T04:47:51;15.63;;;7.50;;
75628;SDS011;64213;46.452;16.994;2023-09-18T04:50:54;15.82;;;8.00;;
75628;SDS011;64213;46.452;16.994;2023-09-18T04:53:56;18.00;;;7.47;;
75628;SDS011;64213;46.452;16.994;2023-09-18T04:56:58;17.58;;;7.55;;
75628;SDS011;64213;46.452;16.994;2023-09-18T05:00:01;18.67;;;9.93;;
75628;SDS011;64213;46.452;16.994;2023-09-18T05:03:16;20.95;;;11.12;;
75628;SDS011;64213;46.452;16.994;2023-09-18T05:06:19;21.30;;;12.68;;
75628;SDS011;64213;46.452;16.994;2023-09-18T05:09:22;25.25;;;13.30;;
75628;SDS011;64213;46.452;16.994;2023-09-18T05:12:25;26.12;;;12.88;;
75628;SDS011;64213;46.452;16.994;2023-09-18T05:15:27;28.43;;;13.00;;
75628;SDS011;64213;46.452;16.994;2023-09-18T05:18:33;21.55;;;12.02;;
75628;SDS011;64213;46.452;16.994;2023-09-18T05:21:36;24.08;;;13.65;;
75628;SDS011;64213;46.452;16.994;2023-09-18T05:24:39;26.35;;;13.50;;
75628;SDS011;64213;46.452;16.994;2023-09-18T05:27:41;24.95;;;13.75;;
75628;SDS011;64213;46.452;16.994;2023-09-18T05:30:47;25.10;;;13.63;;
75628;SDS011;64213;46.452;16.994;2023-09-18T05:33:49;25.02;;;13.50;;
75628;SDS011;64213;46.452;16.994;2023-09-18T05:36:52;28.20;;;14.65;;
75628;SDS011;64213;46.452;16.994;2023-09-18T05:39:55;26.50;;;14.77;;
75628;SDS011;64213;46.452;16.994;2023-09-18T05:42:57;24.35;;;13.02;;
75628;SDS011;64213;46.452;16.994;2023-09-18T05:46:00;23.80;;;13.87;;
75628;SDS011;64213;46.452;16.994;2023-09-18T05:49:03;22.98;;;12.52;;
75628;SDS011;64213;46.452;16.994;2023-09-18T05:52:06;22.37;;;13.30;;
75628;SDS011;64213;46.452;16.994;2023-09-18T05:55:08;24.77;;;12.82;;
75628;SDS011;64213;46.452;16.994;2023-09-18T05:58:11;24.42;;;13.20;;
75628;SDS011;64213;46.452;16.994;2023-09-18T06:01:14;23.53;;;13.00;;
75628;SDS011;64213;46.452;16.994;2023-09-18T06:04:16;17.83;;;9.82;;
75628;SDS011;64213;46.452;16.994;2023-09-18T06:07:19;22.00;;;12.52;;
75628;SDS011;64213;46.452;16.994;2023-09-18T06:10:21;19.30;;;11.15;;
75628;SDS011;64213;46.452;16.994;2023-09-18T06:13:24;18.10;;;9.77;;
75628;SDS011;64213;46.452;16.994;2023-09-18T06:16:27;19.10;;;11.17;;
75628;SDS011;64213;46.452;16.994;2023-09-18T06:19:29;15.63;;;8.35;;
75628;SDS011;64213;46.452;16.994;2023-09-18T06:22:32;18.67;;;9.82;;
75628;SDS011;64213;46.452;16.994;2023-09-18T06:25:35;17.70;;;10.15;;
75628;SDS011;64213;46.452;16.994;2023-09-18T06:28:37;17.50;;;9.50;;
75628;SDS011;64213;46.452;16.994;2023-09-18T06:31:41;18.90;;;9.83;;
75628;SDS011;64213;46.452;16.994;2023-09-18T06:34:43;15.90;;;9.20;;
75628;SDS011;64213;46.452;16.994;2023-09-18T06:37:46;17.62;;;9.82;;
75628;SDS011;64213;46.452;16.994;2023-09-18T06:40:48;14.63;;;8.82;;
75628;SDS011;64213;46.452;16.994;2023-09-18T06:43:52;15.98;;;9.23;;
75628;SDS011;64213;46.452;16.994;2023-09-18T06:46:54;18.33;;;8.97;;
75628;SDS011;64213;46.452;16.994;2023-09-18T06:49:56;16.80;;;8.90;;
75628;SDS011;64213;46.452;16.994;2023-09-18T06:52:59;17.20;;;9.00;;
75628;SDS011;64213;46.452;16.994;2023-09-18T06:56:01;15.55;;;8.05;;
75628;SDS011;64213;46.452;16.994;2023-09-18T06:59:04;15.70;;;8.50;;
75628;SDS011;64213;46.452;16.994;2023-09-18T07:02:06;17.97;;;8.73;;
75628;SDS011;64213;46.452;16.994;2023-09-18T07:05:09;15.73;;;8.93;;
75628;SDS011;64213;46.452;16.994;2023-09-18T07:08:11;15.68;;;8.77;;
75628;SDS011;64213;46.452;16.994;2023-09-18T07:11:15;19.80;;;8.82;;
75628;SDS011;64213;46.452;16.994;2023-09-18T07:14:18;13.68;;;8.10;;
75628;SDS011;64213;46.452;16.994;2023-09-18T07:17:21;18.57;;;10.37;;
75628;SDS011;64213;46.452;16.994;2023-09-18T07:20:23;16.73;;;10.05;;
75628;SDS011;64213;46.452;16.994;2023-09-18T07:23:26;21.52;;;10.30;;
75628;SDS011;64213;46.452;16.994;2023-09-18T07:26:28;16.98;;;11.20;;
75628;SDS011;64213;46.452;16.994;2023-09-18T07:29:31;18.23;;;9.80;;
75628;SDS011;64213;46.452;16.994;2023-09-18T07:32:33;15.93;;;9.07;;
75628;SDS011;64213;46.452;16.994;2023-09-18T07:35:39;15.07;;;8.07;;
75628;SDS011;64213;46.452;16.994;2023-09-18T07:38:42;14.38;;;7.50;;
75628;SDS011;64213;46.452;16.994;2023-09-18T07:41:45;14.40;;;7.53;;
75628;SDS011;64213;46.452;16.994;2023-09-18T07:44:47;15.82;;;7.93;;
75628;SDS011;64213;46.452;16.994;2023-09-18T07:47:50;13.17;;;7.63;;
75628;SDS011;64213;46.452;16.994;2023-09-18T07:50:53;15.00;;;7.22;;
75628;SDS011;64213;46.452;16.994;2023-09-18T07:53:56;13.98;;;7.37;;
75628;SDS011;64213;46.452;16.994;2023-09-18T07:56:58;13.40;;;8.07;;
75628;SDS011;64213;46.452;16.994;2023-09-18T08:00:02;13.52;;;6.87;;
75628;SDS011;64213;46.452;16.994;2023-09-18T08:03:09;16.00;;;7.80;;
75628;SDS011;64213;46.452;16.994;2023-09-18T08:06:12;13.30;;;7.45;;
75628;SDS011;64213;46.452;16.994;2023-09-18T08:09:16;13.95;;;7.15;;
75628;SDS011;64213;46.452;16.994;2023-09-18T08:12:18;15.13;;;8.15;;
75628;SDS011;64213;46.452;16.994;2023-09-18T08:15:21;14.27;;;7.32;;
75628;SDS011;64213;46.452;16.994;2023-09-18T08:18:24;15.73;;;7.10;;
75628;SDS011;64213;46.452;16.994;2023-09-18T08:21:28;12.63;;;7.70;;
75628;SDS011;64213;46.452;16.994;2023-09-18T08:24:31;14.85;;;8.07;;
75628;SDS011;64213;46.452;16.994;2023-09-18T08:27:34;13.85;;;7.30;;
75628;SDS011;64213;46.452;16.994;2023-09-18T08:30:37;14.90;;;6.97;;
75628;SDS011;64213;46.452;16.994;2023-09-18T08:33:42;11.30;;;6.37;;
75628;SDS011;64213;46.452;16.994;2023-09-18T08:36:45;12.75;;;6.90;;
75628;SDS011;64213;46.452;16.994;2023-09-18T08:39:47;13.10;;;7.05;;
75628;SDS011;64213;46.452;16.994;2023-09-18T08:42:51;12.77;;;6.65;;
75628;SDS011;64213;46.452;16.994;2023-09-18T08:45:55;17.05;;;6.28;;
75628;SDS011;64213;46.452;16.994;2023-09-18T08:49:04;14.93;;;6.43;;
75628;SDS011;64213;46.452;16.994;2023-09-18T08:52:07;11.05;;;5.43;;
75628;SDS011;64213;46.452;16.994;2023-09-18T08:55:10;12.90;;;7.45;;
75628;SDS011;64213;46.452;16.994;2023-09-18T08:58:13;12.45;;;6.00;;
75628;SDS011;64213;46.452;16.994;2023-09-18T09:01:17;12.70;;;6.10;;
75628;SDS011;64213;46.452;16.994;2023-09-18T09:04:20;12.13;;;5.80;;
75628;SDS011;64213;46.452;16.994;2023-09-18T09:07:22;12.50;;;5.28;;
75628;SDS011;64213;46.452;16.994;2023-09-18T09:10:25;9.32;;;4.65;;
75628;SDS011;64213;46.452;16.994;2023-09-18T09:13:27;11.70;;;5.30;;
75628;SDS011;64213;46.452;16.994;2023-09-18T09:16:45;12.37;;;5.95;;
75628;SDS011;64213;46.452;16.994;2023-09-18T09:19:49;13.47;;;5.53;;
75628;SDS011;64213;46.452;16.994;2023-09-18T09:22:51;11.93;;;5.07;;
75628;SDS011;64213;46.452;16.994;2023-09-18T09:26:14;11.50;;;5.32;;
75628;SDS011;64213;46.452;16.994;2023-09-18T09:29:19;10.23;;;5.65;;
75628;SDS011;64213;46.452;16.994;2023-09-18T09:32:22;10.05;;;5.20;;
75628;SDS011;64213;46.452;16.994;2023-09-18T09:35:43;9.63;;;4.83;;
75628;SDS011;64213;46.452;16.994;2023-09-18T09:38:45;12.05;;;5.00;;
75628;SDS011;64213;46.452;16.994;2023-09-18T09:41:48;12.15;;;4.65;;
75628;SDS011;64213;46.452;16.994;2023-09-18T09:45:01;11.35;;;4.97;;
75628;SDS011;64213;46.452;16.994;2023-09-18T09:48:06;11.77;;;5.80;;
75628;SDS011;64213;46.452;16.994;2023-09-18T09:51:09;12.97;;;4.33;;
75628;SDS011;64213;46.452;16.994;2023-09-18T09:54:32;10.23;;;4.30;;
75628;SDS011;64213;46.452;16.994;2023-09-18T09:57:46;11.30;;;4.37;;
75628;SDS011;64213;46.452;16.994;2023-09-18T10:00:57;8.98;;;4.03;;
75628;SDS011;64213;46.452;16.994;2023-09-18T10:04:05;10.40;;;4.72;;
75628;SDS011;64213;46.452;16.994;2023-09-18T10:07:19;9.60;;;4.27;;
75628;SDS011;64213;46.452;16.994;2023-09-18T10:10:23;10.82;;;4.40;;
75628;SDS011;64213;46.452;16.994;2023-09-18T10:17:00;8.82;;;4.30;;
75628;SDS011;64213;46.452;16.994;2023-09-18T10:20:13;9.73;;;4.20;;
75628;SDS011;64213;46.452;16.994;2023-09-18T10:23:24;8.60;;;4.10;;
75628;SDS011;64213;46.452;16.994;2023-09-18T10:26:55;11.85;;;4.32;;
75628;SDS011;64213;46.452;16.994;2023-09-18T10:30:00;10.60;;;4.20;;
75628;SDS011;64213;46.452;16.994;2023-09-18T10:33:06;9.68;;;4.12;;
75628;SDS011;64213;46.452;16.994;2023-09-18T10:36:10;11.00;;;4.50;;
75628;SDS011;64213;46.452;16.994;2023-09-18T10:39:15;10.20;;;4.90;;
75628;SDS011;64213;46.452;16.994;2023-09-18T10:42:39;11.70;;;3.67;;
75628;SDS011;64213;46.452;16.994;2023-09-18T10:45:43;10.32;;;4.40;;
75628;SDS011;64213;46.452;16.994;2023-09-18T10:48:46;9.45;;;4.10;;
75628;SDS011;64213;46.452;16.994;2023-09-18T10:51:53;16.83;;;4.53;;
75628;SDS011;64213;46.452;16.994;2023-09-18T10:54:56;9.43;;;3.90;;
75628;SDS011;64213;46.452;16.994;2023-09-18T10:57:59;11.20;;;4.28;;
75628;SDS011;64213;46.452;16.994;2023-09-18T11:01:02;11.23;;;4.50;;
75628;SDS011;64213;46.452;16.994;2023-09-18T11:04:07;10.38;;;3.65;;
75628;SDS011;64213;46.452;16.994;2023-09-18T11:07:19;11.18;;;4.55;;
75628;SDS011;64213;46.452;16.994;2023-09-18T11:10:25;12.40;;;4.67;;
75628;SDS011;64213;46.452;16.994;2023-09-18T11:13:39;10.38;;;4.40;;
75628;SDS011;64213;46.452;16.994;2023-09-18T11:16:52;10.18;;;3.67;;
75628;SDS011;64213;46.452;16.994;2023-09-18T11:20:08;10.90;;;4.22;;
75628;SDS011;64213;46.452;16.994;2023-09-18T11:26:16;10.90;;;4.10;;
75628;SDS011;64213;46.452;16.994;2023-09-18T11:29:22;12.82;;;4.12;;
75628;SDS011;64213;46.452;16.994;2023-09-18T11:32:37;11.90;;;4.35;;
75628;SDS011;64213;46.452;16.994;2023-09-18T11:35:50;11.80;;;4.10;;
75628;SDS011;64213;46.452;16.994;2023-09-18T11:38:56;11.40;;;4.50;;
75628;SDS011;64213;46.452;16.994;2023-09-18T11:42:10;12.63;;;4.27;;
75628;SDS011;64213;46.452;16.994;2023-09-18T11:45:30;9.40;;;4.10;;
75628;SDS011;64213;46.452;16.994;2023-09-18T11:48:32;8.80;;;3.90;;
75628;SDS011;64213;46.452;16.994;2023-09-18T11:51:36;10.27;;;3.72;;
75628;SDS011;64213;46.452;16.994;2023-09-18T11:54:39;11.25;;;4.57;;
75628;SDS011;64213;46.452;16.994;2023-09-18T11:57:42;10.00;;;4.40;;
75628;SDS011;64213;46.452;16.994;2023-09-18T12:00:49;10.52;;;3.67;;
75628;SDS011;64213;46.452;16.994;2023-09-18T12:04:00;8.23;;;3.37;;
75628;SDS011;64213;46.452;16.994;2023-09-18T12:07:04;9.63;;;4.35;;
75628;SDS011;64213;46.452;16.994;2023-09-18T12:10:07;10.05;;;4.10;;
75628;SDS011;64213;46.452;16.994;2023-09-18T12:13:10;10.07;;;4.07;;
75628;SDS011;64213;46.452;16.994;2023-09-18T12:16:13;9.48;;;4.40;;
75628;SDS011;64213;46.452;16.994;2023-09-18T12:19:16;11.07;;;4.57;;
75628;SDS011;64213;46.452;16.994;2023-09-18T12:22:24;9.32;;;3.72;;
75628;SDS011;64213;46.452;16.994;2023-09-18T12:25:29;11.95;;;4.65;;
75628;SDS011;64213;46.452;16.994;2023-09-18T12:28:32;12.17;;;5.27;;
75628;SDS011;64213;46.452;16.994;2023-09-18T12:31:36;13.32;;;5.25;;
75628;SDS011;64213;46.452;16.994;2023-09-18T12:34:41;11.20;;;4.75;;
75628;SDS011;64213;46.452;16.994;2023-09-18T12:37:45;10.00;;;4.28;;
75628;SDS011;64213;46.452;16.994;2023-09-18T12:40:47;11.38;;;4.30;;
75628;SDS011;64213;46.452;16.994;2023-09-18T12:43:50;9.60;;;3.80;;
75628;SDS011;64213;46.452;16.994;2023-09-18T12:46:53;12.95;;;4.43;;
75628;SDS011;64213;46.452;16.994;2023-09-18T12:50:01;13.38;;;3.90;;
75628;SDS011;64213;46.452;16.994;2023-09-18T12:53:06;10.43;;;4.00;;
75628;SDS011;64213;46.452;16.994;2023-09-18T12:56:15;10.18;;;4.35;;
75628;SDS011;64213;46.452;16.994;2023-09-18T12:59:17;10.67;;;4.33;;
75628;SDS011;64213;46.452;16.994;2023-09-18T13:02:20;12.45;;;4.18;;
75628;SDS011;64213;46.452;16.994;2023-09-18T13:05:30;12.35;;;4.20;;
75628;SDS011;64213;46.452;16.994;2023-09-18T13:08:37;9.73;;;3.92;;
75628;SDS011;64213;46.452;16.994;2023-09-18T13:11:53;9.73;;;3.70;;
75628;SDS011;64213;46.452;16.994;2023-09-18T13:15:00;12.17;;;4.80;;
75628;SDS011;64213;46.452;16.994;2023-09-18T13:18:10;11.93;;;4.20;;
75628;SDS011;64213;46.452;16.994;2023-09-18T13:21:15;9.60;;;3.65;;
75628;SDS011;64213;46.452;16.994;2023-09-18T13:24:54;11.75;;;4.43;;
75628;SDS011;64213;46.452;16.994;2023-09-18T13:27:47;10.95;;;4.50;;
75628;SDS011;64213;46.452;16.994;2023-09-18T13:30:51;9.73;;;4.20;;
75628;SDS011;64213;46.452;16.994;2023-09-18T13:33:54;12.32;;;4.55;;
75628;SDS011;64213;46.452;16.994;2023-09-18T13:36:56;12.15;;;4.85;;
75628;SDS011;64213;46.452;16.994;2023-09-18T13:39:58;12.05;;;4.78;;
75628;SDS011;64213;46.452;16.994;2023-09-18T13:43:03;14.50;;;4.35;;
75628;SDS011;64213;46.452;16.994;2023-09-18T13:46:07;14.43;;;4.80;;
75628;SDS011;64213;46.452;16.994;2023-09-18T13:49:09;12.90;;;4.35;;
75628;SDS011;64213;46.452;16.994;2023-09-18T13:52:11;10.80;;;4.50;;
75628;SDS011;64213;46.452;16.994;2023-09-18T13:55:14;12.68;;;4.70;;
75628;SDS011;64213;46.452;16.994;2023-09-18T13:58:16;12.93;;;4.95;;
75628;SDS011;64213;46.452;16.994;2023-09-18T14:01:19;12.20;;;5.10;;
75628;SDS011;64213;46.452;16.994;2023-09-18T14:04:22;11.77;;;4.82;;
75628;SDS011;64213;46.452;16.994;2023-09-18T14:07:24;12.25;;;4.75;;
75628;SDS011;64213;46.452;16.994;2023-09-18T14:10:27;11.95;;;4.62;;
75628;SDS011;64213;46.452;16.994;2023-09-18T14:13:29;11.07;;;4.57;;
75628;SDS011;64213;46.452;16.994;2023-09-18T14:16:32;12.87;;;4.50;;
75628;SDS011;64213;46.452;16.994;2023-09-18T14:19:35;9.98;;;4.28;;
75628;SDS011;64213;46.452;16.994;2023-09-18T14:22:40;13.62;;;4.57;;
75628;SDS011;64213;46.452;16.994;2023-09-18T14:25:42;10.43;;;4.53;;
75628;SDS011;64213;46.452;16.994;2023-09-18T14:28:44;11.77;;;4.82;;
75628;SDS011;64213;46.452;16.994;2023-09-18T14:31:48;12.70;;;5.30;;
75628;SDS011;64213;46.452;16.994;2023-09-18T14:34:50;15.25;;;5.50;;
75628;SDS011;64213;46.452;16.994;2023-09-18T14:37:53;11.15;;;4.70;;
75628;SDS011;64213;46.452;16.994;2023-09-18T14:40:55;13.05;;;4.87;;
75628;SDS011;64213;46.452;16.994;2023-09-18T14:44:04;11.93;;;5.32;;
75628;SDS011;64213;46.452;16.994;2023-09-18T14:47:08;13.83;;;4.40;;
75628;SDS011;64213;46.452;16.994;2023-09-18T14:50:10;13.52;;;5.30;;
75628;SDS011;64213;46.452;16.994;2023-09-18T14:53:13;10.45;;;4.07;;
75628;SDS011;64213;46.452;16.994;2023-09-18T14:56:17;12.20;;;5.28;;
75628;SDS011;64213;46.452;16.994;2023-09-18T14:59:19;9.10;;;4.75;;
75628;SDS011;64213;46.452;16.994;2023-09-18T15:02:42;11.00;;;5.13;;
75628;SDS011;64213;46.452;16.994;2023-09-18T15:05:44;13.60;;;4.87;;
75628;SDS011;64213;46.452;16.994;2023-09-18T15:08:47;14.20;;;5.03;;
75628;SDS011;64213;46.452;16.994;2023-09-18T15:11:50;13.88;;;5.15;;
75628;SDS011;64213;46.452;16.994;2023-09-18T15:14:53;14.23;;;4.75;;
75628;SDS011;64213;46.452;16.994;2023-09-18T15:17:56;10.03;;;4.70;;
75628;SDS011;64213;46.452;16.994;2023-09-18T15:20:59;13.52;;;5.37;;
75628;SDS011;64213;46.452;16.994;2023-09-18T15:24:02;12.73;;;4.62;;
75628;SDS011;64213;46.452;16.994;2023-09-18T15:27:06;13.48;;;5.12;;
75628;SDS011;64213;46.452;16.994;2023-09-18T15:30:08;14.02;;;5.55;;
75628;SDS011;64213;46.452;16.994;2023-09-18T15:33:12;14.57;;;5.20;;
75628;SDS011;64213;46.452;16.994;2023-09-18T15:36:17;16.40;;;5.47;;
75628;SDS011;64213;46.452;16.994;2023-09-18T15:39:19;16.45;;;5.00;;
75628;SDS011;64213;46.452;16.994;2023-09-18T15:42:22;14.50;;;4.60;;
75628;SDS011;64213;46.452;16.994;2023-09-18T15:45:25;14.32;;;5.70;;
75628;SDS011;64213;46.452;16.994;2023-09-18T15:48:28;15.20;;;4.70;;
75628;SDS011;64213;46.452;16.994;2023-09-18T15:51:30;14.48;;;5.43;;
75628;SDS011;64213;46.452;16.994;2023-09-18T15:54:33;13.73;;;5.00;;
75628;SDS011;64213;46.452;16.994;2023-09-18T15:57:36;14.15;;;4.75;;
75628;SDS011;64213;46.452;16.994;2023-09-18T16:00:44;10.48;;;4.43;;
75628;SDS011;64213;46.452;16.994;2023-09-18T16:03:47;16.43;;;4.90;;
75628;SDS011;64213;46.452;16.994;2023-09-18T16:06:50;13.32;;;4.97;;
75628;SDS011;64213;46.452;16.994;2023-09-18T16:09:54;13.05;;;4.22;;
75628;SDS011;64213;46.452;16.994;2023-09-18T16:12:56;12.40;;;4.70;;
75628;SDS011;64213;46.452;16.994;2023-09-18T16:16:00;12.50;;;4.45;;
75628;SDS011;64213;46.452;16.994;2023-09-18T16:19:05;12.17;;;5.10;;
75628;SDS011;64213;46.452;16.994;2023-09-18T16:22:08;15.45;;;4.45;;
75628;SDS011;64213;46.452;16.994;2023-09-18T16:25:17;11.23;;;4.80;;
75628;SDS011;64213;46.452;16.994;2023-09-18T16:28:20;13.00;;;5.12;;
75628;SDS011;64213;46.452;16.994;2023-09-18T16:31:22;13.43;;;4.97;;
75628;SDS011;64213;46.452;16.994;2023-09-18T16:34:27;12.70;;;4.77;;
75628;SDS011;64213;46.452;16.994;2023-09-18T16:37:29;17.00;;;4.87;;
75628;SDS011;64213;46.452;16.994;2023-09-18T16:40:32;15.05;;;4.62;;
75628;SDS011;64213;46.452;16.994;2023-09-18T16:43:36;13.45;;;4.30;;
75628;SDS011;64213;46.452;16.994;2023-09-18T16:46:39;11.32;;;4.15;;
75628;SDS011;64213;46.452;16.994;2023-09-18T16:49:42;14.77;;;4.43;;
75628;SDS011;64213;46.452;16.994;2023-09-18T16:52:45;13.15;;;4.43;;
75628;SDS011;64213;46.452;16.994;2023-09-18T16:55:48;15.18;;;5.12;;
75628;SDS011;64213;46.452;16.994;2023-09-18T16:58:51;12.82;;;4.75;;
75628;SDS011;64213;46.452;16.994;2023-09-18T17:01:56;15.07;;;4.70;;
75628;SDS011;64213;46.452;16.994;2023-09-18T17:04:59;17.57;;;5.00;;
75628;SDS011;64213;46.452;16.994;2023-09-18T17:08:03;14.75;;;4.93;;
75628;SDS011;64213;46.452;16.994;2023-09-18T17:11:07;15.10;;;4.78;;
75628;SDS011;64213;46.452;16.994;2023-09-18T17:14:11;13.85;;;4.50;;
75628;SDS011;64213;46.452;16.994;2023-09-18T17:17:18;10.90;;;3.67;;
75628;SDS011;64213;46.452;16.994;2023-09-18T17:20:21;15.67;;;6.17;;
75628;SDS011;64213;46.452;16.994;2023-09-18T17:23:26;12.95;;;4.72;;
75628;SDS011;64213;46.452;16.994;2023-09-18T17:26:31;15.98;;;5.28;;
75628;SDS011;64213;46.452;16.994;2023-09-18T17:29:37;11.32;;;4.10;;
75628;SDS011;64213;46.452;16.994;2023-09-18T17:32:41;12.27;;;4.53;;
75628;SDS011;64213;46.452;16.994;2023-09-18T17:35:46;11.90;;;3.57;;
75628;SDS011;64213;46.452;16.994;2023-09-18T17:38:52;9.77;;;3.30;;
75628;SDS011;64213;46.452;16.994;2023-09-18T17:41:59;12.95;;;5.15;;
75628;SDS011;64213;46.452;16.994;2023-09-18T17:45:04;9.65;;;3.65;;
75628;SDS011;64213;46.452;16.994;2023-09-18T17:48:09;10.07;;;4.00;;
75628;SDS011;64213;46.452;16.994;2023-09-18T17:51:14;18.30;;;4.57;;
75628;SDS011;64213;46.452;16.994;2023-09-18T17:54:20;11.18;;;3.83;;
75628;SDS011;64213;46.452;16.994;2023-09-18T17:57:24;10.98;;;3.80;;
75628;SDS011;64213;46.452;16.994;2023-09-18T18:00:28;15.73;;;4.55;;
75628;SDS011;64213;46.452;16.994;2023-09-18T18:03:33;9.80;;;3.92;;